sensor_id;sensor_type;location;lat;lon;timestamp;P1;durP1;ratioP1;P2;durP2;ratioP2
39324;SDS011;25037;49.488;9.900;2022-10-01T00:00:49;11.52;;;7.82;;
39324;SDS011;25037;49.488;9.900;2022-10-01T00:03:15;12.55;;;7.57;;
39324;SDS011;25037;49.488;9.900;2022-10-01T00:05:42;10.18;;;7.15;;
39324;SDS011;25037;49.488;9.900;2022-10-01T00:08:08;10.48;;;8.05;;
39324;SDS011;25037;49.488;9.900;2022-10-01T00:10:33;13.13;;;8.77;;
39324;SDS011;25037;49.488;9.900;2022-10-01T00:13:00;10.43;;;7.93;;
39324;SDS011;25037;49.488;9.900;2022-10-01T00:15:26;7.82;;;6.78;;
39324;SDS011;25037;49.488;9.900;2022-10-01T00:17:51;10.68;;;8.00;;
39324;SDS011;25037;49.488;9.900;2022-10-01T00:20:17;9.07;;;7.55;;
39324;SDS011;25037;49.488;9.900;2022-10-01T00:22:43;12.30;;;7.57;;
39324;SDS011;25037;49.488;9.900;2022-10-01T00:25:10;10.45;;;7.68;;
39324;SDS011;25037;49.488;9.900;2022-10-01T00:27:35;9.88;;;6.80;;
39324;SDS011;25037;49.488;9.900;2022-10-01T00:30:05;7.72;;;6.18;;
39324;SDS011;25037;49.488;9.900;2022-10-01T00:32:31;10.02;;;7.53;;
39324;SDS011;25037;49.488;9.900;2022-10-01T00:35:00;9.88;;;7.10;;
39324;SDS011;25037;49.488;9.900;2022-10-01T00:37:26;8.02;;;6.60;;
39324;SDS011;25037;49.488;9.900;2022-10-01T00:39:52;13.80;;;7.50;;
39324;SDS011;25037;49.488;9.900;2022-10-01T00:42:20;10.90;;;7.28;;
39324;SDS011;25037;49.488;9.900;2022-10-01T00:44:48;8.15;;;5.82;;
39324;SDS011;25037;49.488;9.900;2022-10-01T00:47:19;9.38;;;6.20;;
39324;SDS011;25037;49.488;9.900;2022-10-01T00:49:52;9.18;;;6.72;;
39324;SDS011;25037;49.488;9.900;2022-10-01T00:52:24;9.25;;;6.65;;
39324;SDS011;25037;49.488;9.900;2022-10-01T00:57:50;9.93;;;6.75;;
39324;SDS011;25037;49.488;9.900;2022-10-01T01:00:17;10.25;;;6.90;;
39324;SDS011;25037;49.488;9.900;2022-10-01T01:02:43;10.73;;;6.78;;
39324;SDS011;25037;49.488;9.900;2022-10-01T01:05:08;10.35;;;6.80;;
39324;SDS011;25037;49.488;9.900;2022-10-01T01:07:37;12.30;;;7.85;;
39324;SDS011;25037;49.488;9.900;2022-10-01T01:10:04;10.48;;;6.95;;
39324;SDS011;25037;49.488;9.900;2022-10-01T01:15:14;9.63;;;6.90;;
39324;SDS011;25037;49.488;9.900;2022-10-01T01:20:13;11.93;;;6.68;;
39324;SDS011;25037;49.488;9.900;2022-10-01T01:22:44;7.90;;;6.43;;
39324;SDS011;25037;49.488;9.900;2022-10-01T01:25:19;9.93;;;6.97;;
39324;SDS011;25037;49.488;9.900;2022-10-01T01:30:41;10.40;;;6.68;;
39324;SDS011;25037;49.488;9.900;2022-10-01T01:33:12;9.50;;;6.80;;
39324;SDS011;25037;49.488;9.900;2022-10-01T01:35:45;11.75;;;7.43;;
39324;SDS011;25037;49.488;9.900;2022-10-01T01:38:19;9.85;;;7.60;;
39324;SDS011;25037;49.488;9.900;2022-10-01T01:40:48;7.90;;;6.47;;
39324;SDS011;25037;49.488;9.900;2022-10-01T01:43:19;10.20;;;7.63;;
39324;SDS011;25037;49.488;9.900;2022-10-01T01:45:50;11.30;;;7.10;;
39324;SDS011;25037;49.488;9.900;2022-10-01T01:48:18;9.45;;;7.43;;
39324;SDS011;25037;49.488;9.900;2022-10-01T01:50:47;10.85;;;6.80;;
39324;SDS011;25037;49.488;9.900;2022-10-01T01:53:19;13.40;;;7.80;;
39324;SDS011;25037;49.488;9.900;2022-10-01T01:55:45;11.13;;;7.80;;
39324;SDS011;25037;49.488;9.900;2022-10-01T01:58:13;8.48;;;7.00;;
39324;SDS011;25037;49.488;9.900;2022-10-01T02:00:42;10.35;;;7.85;;
39324;SDS011;25037;49.488;9.900;2022-10-01T02:03:08;10.23;;;6.97;;
39324;SDS011;25037;49.488;9.900;2022-10-01T02:05:41;10.10;;;7.38;;
39324;SDS011;25037;49.488;9.900;2022-10-01T02:08:24;13.15;;;8.02;;
39324;SDS011;25037;49.488;9.900;2022-10-01T02:18:40;10.25;;;6.95;;
39324;SDS011;25037;49.488;9.900;2022-10-01T02:21:27;10.73;;;7.82;;
39324;SDS011;25037;49.488;9.900;2022-10-01T02:24:05;11.30;;;7.00;;
39324;SDS011;25037;49.488;9.900;2022-10-01T02:26:37;9.70;;;7.13;;
39324;SDS011;25037;49.488;9.900;2022-10-01T02:29:06;10.40;;;7.65;;
39324;SDS011;25037;49.488;9.900;2022-10-01T02:31:33;10.70;;;7.75;;
39324;SDS011;25037;49.488;9.900;2022-10-01T02:33:59;12.70;;;7.50;;
39324;SDS011;25037;49.488;9.900;2022-10-01T02:36:28;8.35;;;6.85;;
39324;SDS011;25037;49.488;9.900;2022-10-01T02:38:56;12.20;;;8.07;;
39324;SDS011;25037;49.488;9.900;2022-10-01T02:41:29;8.32;;;7.03;;
39324;SDS011;25037;49.488;9.900;2022-10-01T02:44:00;8.68;;;7.30;;
39324;SDS011;25037;49.488;9.900;2022-10-01T02:46:42;9.98;;;7.35;;
39324;SDS011;25037;49.488;9.900;2022-10-01T02:49:14;11.30;;;8.00;;
39324;SDS011;25037;49.488;9.900;2022-10-01T02:51:42;10.73;;;8.45;;
39324;SDS011;25037;49.488;9.900;2022-10-01T02:54:45;15.00;;;11.27;;
39324;SDS011;25037;49.488;9.900;2022-10-01T02:57:22;13.23;;;10.60;;
39324;SDS011;25037;49.488;9.900;2022-10-01T03:00:02;12.77;;;9.98;;
39324;SDS011;25037;49.488;9.900;2022-10-01T03:02:36;17.20;;;11.57;;
39324;SDS011;25037;49.488;9.900;2022-10-01T03:05:02;16.70;;;10.63;;
39324;SDS011;25037;49.488;9.900;2022-10-01T03:07:30;15.30;;;9.82;;
39324;SDS011;25037;49.488;9.900;2022-10-01T03:09:58;14.00;;;9.32;;
39324;SDS011;25037;49.488;9.900;2022-10-01T03:12:24;12.65;;;10.68;;
39324;SDS011;25037;49.488;9.900;2022-10-01T03:14:49;11.52;;;8.48;;
39324;SDS011;25037;49.488;9.900;2022-10-01T03:17:15;11.52;;;8.80;;
39324;SDS011;25037;49.488;9.900;2022-10-01T03:19:41;13.13;;;9.10;;
39324;SDS011;25037;49.488;9.900;2022-10-01T03:22:08;13.57;;;9.02;;
39324;SDS011;25037;49.488;9.900;2022-10-01T03:24:34;11.68;;;8.88;;
39324;SDS011;25037;49.488;9.900;2022-10-01T03:27:00;13.07;;;8.57;;
39324;SDS011;25037;49.488;9.900;2022-10-01T03:29:26;15.30;;;9.07;;
39324;SDS011;25037;49.488;9.900;2022-10-01T03:31:51;10.60;;;8.15;;
39324;SDS011;25037;49.488;9.900;2022-10-01T03:34:18;11.57;;;9.52;;
39324;SDS011;25037;49.488;9.900;2022-10-01T03:36:43;11.95;;;8.90;;
39324;SDS011;25037;49.488;9.900;2022-10-01T03:39:09;10.52;;;8.25;;
39324;SDS011;25037;49.488;9.900;2022-10-01T03:41:35;13.70;;;9.48;;
39324;SDS011;25037;49.488;9.900;2022-10-01T03:44:01;12.65;;;9.43;;
39324;SDS011;25037;49.488;9.900;2022-10-01T03:46:27;11.32;;;8.93;;
39324;SDS011;25037;49.488;9.900;2022-10-01T03:48:53;13.40;;;8.95;;
39324;SDS011;25037;49.488;9.900;2022-10-01T03:51:19;11.30;;;8.90;;
39324;SDS011;25037;49.488;9.900;2022-10-01T03:53:45;14.30;;;9.55;;
39324;SDS011;25037;49.488;9.900;2022-10-01T03:56:12;11.70;;;8.70;;
39324;SDS011;25037;49.488;9.900;2022-10-01T03:58:38;11.90;;;9.02;;
39324;SDS011;25037;49.488;9.900;2022-10-01T04:01:04;15.40;;;9.23;;
39324;SDS011;25037;49.488;9.900;2022-10-01T04:03:29;9.68;;;8.43;;
39324;SDS011;25037;49.488;9.900;2022-10-01T04:05:55;12.18;;;7.70;;
39324;SDS011;25037;49.488;9.900;2022-10-01T04:08:21;10.05;;;7.93;;
39324;SDS011;25037;49.488;9.900;2022-10-01T04:10:47;8.93;;;6.68;;
39324;SDS011;25037;49.488;9.900;2022-10-01T04:13:13;10.10;;;6.35;;
39324;SDS011;25037;49.488;9.900;2022-10-01T04:15:40;9.70;;;6.88;;
39324;SDS011;25037;49.488;9.900;2022-10-01T04:18:06;10.82;;;6.85;;
39324;SDS011;25037;49.488;9.900;2022-10-01T04:20:32;8.45;;;6.15;;
39324;SDS011;25037;49.488;9.900;2022-10-01T04:22:59;8.52;;;6.10;;
39324;SDS011;25037;49.488;9.900;2022-10-01T04:25:25;9.20;;;5.75;;
39324;SDS011;25037;49.488;9.900;2022-10-01T04:30:28;8.00;;;5.13;;
39324;SDS011;25037;49.488;9.900;2022-10-01T04:32:56;5.63;;;4.72;;
39324;SDS011;25037;49.488;9.900;2022-10-01T04:35:22;6.07;;;4.68;;
39324;SDS011;25037;49.488;9.900;2022-10-01T04:37:54;7.28;;;5.40;;
39324;SDS011;25037;49.488;9.900;2022-10-01T04:40:22;7.20;;;4.78;;
39324;SDS011;25037;49.488;9.900;2022-10-01T04:42:48;6.82;;;4.95;;
39324;SDS011;25037;49.488;9.900;2022-10-01T04:45:13;7.25;;;5.18;;
39324;SDS011;25037;49.488;9.900;2022-10-01T04:47:45;7.22;;;4.50;;
39324;SDS011;25037;49.488;9.900;2022-10-01T04:50:16;6.20;;;4.65;;
39324;SDS011;25037;49.488;9.900;2022-10-01T04:52:42;5.57;;;4.47;;
39324;SDS011;25037;49.488;9.900;2022-10-01T04:55:08;6.22;;;4.10;;
39324;SDS011;25037;49.488;9.900;2022-10-01T04:57:34;8.15;;;4.80;;
39324;SDS011;25037;49.488;9.900;2022-10-01T05:00:01;5.30;;;3.97;;
39324;SDS011;25037;49.488;9.900;2022-10-01T05:02:28;6.30;;;3.80;;
39324;SDS011;25037;49.488;9.900;2022-10-01T05:04:54;7.00;;;3.35;;
39324;SDS011;25037;49.488;9.900;2022-10-01T05:07:20;4.85;;;3.10;;
39324;SDS011;25037;49.488;9.900;2022-10-01T05:09:46;5.38;;;2.72;;
39324;SDS011;25037;49.488;9.900;2022-10-01T05:12:12;4.05;;;2.92;;
39324;SDS011;25037;49.488;9.900;2022-10-01T05:14:38;4.88;;;3.15;;
39324;SDS011;25037;49.488;9.900;2022-10-01T05:17:03;5.30;;;3.47;;
39324;SDS011;25037;49.488;9.900;2022-10-01T05:19:31;4.10;;;2.70;;
39324;SDS011;25037;49.488;9.900;2022-10-01T05:21:56;3.05;;;2.15;;
39324;SDS011;25037;49.488;9.900;2022-10-01T05:24:22;4.43;;;2.72;;
39324;SDS011;25037;49.488;9.900;2022-10-01T05:26:48;4.07;;;2.92;;
39324;SDS011;25037;49.488;9.900;2022-10-01T05:29:13;5.13;;;2.85;;
39324;SDS011;25037;49.488;9.900;2022-10-01T05:31:39;4.13;;;2.63;;
39324;SDS011;25037;49.488;9.900;2022-10-01T05:34:08;4.28;;;2.45;;
39324;SDS011;25037;49.488;9.900;2022-10-01T05:36:33;4.45;;;2.83;;
39324;SDS011;25037;49.488;9.900;2022-10-01T05:38:59;3.67;;;2.40;;
39324;SDS011;25037;49.488;9.900;2022-10-01T05:41:25;4.30;;;2.72;;
39324;SDS011;25037;49.488;9.900;2022-10-01T05:43:51;4.65;;;2.70;;
39324;SDS011;25037;49.488;9.900;2022-10-01T05:46:17;3.05;;;2.30;;
39324;SDS011;25037;49.488;9.900;2022-10-01T05:48:43;4.72;;;2.88;;
39324;SDS011;25037;49.488;9.900;2022-10-01T05:51:09;3.88;;;2.30;;
39324;SDS011;25037;49.488;9.900;2022-10-01T05:53:37;4.70;;;2.30;;
39324;SDS011;25037;49.488;9.900;2022-10-01T05:56:06;3.13;;;2.22;;
39324;SDS011;25037;49.488;9.900;2022-10-01T05:58:31;4.63;;;2.90;;
39324;SDS011;25037;49.488;9.900;2022-10-01T06:00:57;7.80;;;2.00;;
39324;SDS011;25037;49.488;9.900;2022-10-01T06:03:23;4.90;;;1.73;;
39324;SDS011;25037;49.488;9.900;2022-10-01T06:05:50;4.55;;;2.22;;
39324;SDS011;25037;49.488;9.900;2022-10-01T06:08:16;2.80;;;1.83;;
39324;SDS011;25037;49.488;9.900;2022-10-01T06:10:42;3.08;;;1.73;;
39324;SDS011;25037;49.488;9.900;2022-10-01T06:13:07;4.30;;;1.80;;
39324;SDS011;25037;49.488;9.900;2022-10-01T06:15:36;3.58;;;1.42;;
39324;SDS011;25037;49.488;9.900;2022-10-01T06:18:06;2.70;;;1.40;;
39324;SDS011;25037;49.488;9.900;2022-10-01T06:20:33;4.07;;;1.70;;
39324;SDS011;25037;49.488;9.900;2022-10-01T06:22:59;4.47;;;1.42;;
39324;SDS011;25037;49.488;9.900;2022-10-01T06:25:25;5.15;;;1.40;;
39324;SDS011;25037;49.488;9.900;2022-10-01T06:27:54;3.15;;;1.40;;
39324;SDS011;25037;49.488;9.900;2022-10-01T06:30:22;4.63;;;1.75;;
39324;SDS011;25037;49.488;9.900;2022-10-01T06:32:52;2.70;;;2.00;;
39324;SDS011;25037;49.488;9.900;2022-10-01T06:35:23;3.35;;;2.10;;
39324;SDS011;25037;49.488;9.900;2022-10-01T06:37:48;3.50;;;2.20;;
39324;SDS011;25037;49.488;9.900;2022-10-01T06:40:14;2.38;;;1.50;;
39324;SDS011;25037;49.488;9.900;2022-10-01T06:42:45;3.33;;;1.77;;
39324;SDS011;25037;49.488;9.900;2022-10-01T06:45:11;4.03;;;1.77;;
39324;SDS011;25037;49.488;9.900;2022-10-01T06:47:37;4.63;;;2.13;;
39324;SDS011;25037;49.488;9.900;2022-10-01T06:50:02;4.53;;;3.53;;
39324;SDS011;25037;49.488;9.900;2022-10-01T06:52:28;4.70;;;2.70;;
39324;SDS011;25037;49.488;9.900;2022-10-01T06:55:17;3.90;;;2.75;;
39324;SDS011;25037;49.488;9.900;2022-10-01T06:57:45;4.55;;;2.60;;
39324;SDS011;25037;49.488;9.900;2022-10-01T07:00:11;6.18;;;2.72;;
39324;SDS011;25037;49.488;9.900;2022-10-01T07:02:37;4.18;;;2.58;;
39324;SDS011;25037;49.488;9.900;2022-10-01T07:05:03;5.45;;;2.35;;
39324;SDS011;25037;49.488;9.900;2022-10-01T07:07:30;4.10;;;2.10;;
39324;SDS011;25037;49.488;9.900;2022-10-01T07:09:57;4.35;;;2.50;;
39324;SDS011;25037;49.488;9.900;2022-10-01T07:12:23;4.88;;;2.75;;
39324;SDS011;25037;49.488;9.900;2022-10-01T07:14:49;4.57;;;2.40;;
39324;SDS011;25037;49.488;9.900;2022-10-01T07:17:18;4.28;;;2.05;;
39324;SDS011;25037;49.488;9.900;2022-10-01T07:19:46;3.85;;;2.10;;
39324;SDS011;25037;49.488;9.900;2022-10-01T07:22:12;4.15;;;2.03;;
39324;SDS011;25037;49.488;9.900;2022-10-01T07:24:38;4.05;;;2.03;;
39324;SDS011;25037;49.488;9.900;2022-10-01T07:27:04;4.72;;;2.22;;
39324;SDS011;25037;49.488;9.900;2022-10-01T07:29:30;4.13;;;2.05;;
39324;SDS011;25037;49.488;9.900;2022-10-01T07:31:57;2.70;;;1.73;;
39324;SDS011;25037;49.488;9.900;2022-10-01T07:34:24;3.20;;;1.75;;
39324;SDS011;25037;49.488;9.900;2022-10-01T07:36:55;5.20;;;1.88;;
39324;SDS011;25037;49.488;9.900;2022-10-01T07:39:24;5.82;;;2.00;;
39324;SDS011;25037;49.488;9.900;2022-10-01T07:41:49;5.57;;;2.08;;
39324;SDS011;25037;49.488;9.900;2022-10-01T07:44:18;4.20;;;2.08;;
39324;SDS011;25037;49.488;9.900;2022-10-01T07:46:44;5.00;;;2.08;;
39324;SDS011;25037;49.488;9.900;2022-10-01T07:49:11;4.22;;;1.75;;
39324;SDS011;25037;49.488;9.900;2022-10-01T07:51:36;3.30;;;1.80;;
39324;SDS011;25037;49.488;9.900;2022-10-01T07:54:02;3.53;;;1.90;;
39324;SDS011;25037;49.488;9.900;2022-10-01T07:56:29;3.70;;;1.88;;
39324;SDS011;25037;49.488;9.900;2022-10-01T07:58:55;4.30;;;1.88;;
39324;SDS011;25037;49.488;9.900;2022-10-01T08:01:21;3.05;;;1.63;;
39324;SDS011;25037;49.488;9.900;2022-10-01T08:03:48;2.40;;;1.55;;
39324;SDS011;25037;49.488;9.900;2022-10-01T08:06:15;4.20;;;1.80;;
39324;SDS011;25037;49.488;9.900;2022-10-01T08:08:41;3.03;;;1.75;;
39324;SDS011;25037;49.488;9.900;2022-10-01T08:11:07;3.60;;;1.77;;
39324;SDS011;25037;49.488;9.900;2022-10-01T08:13:34;3.08;;;1.65;;
39324;SDS011;25037;49.488;9.900;2022-10-01T08:16:01;4.97;;;2.20;;
39324;SDS011;25037;49.488;9.900;2022-10-01T08:18:28;4.97;;;1.58;;
39324;SDS011;25037;49.488;9.900;2022-10-01T08:20:54;2.55;;;1.27;;
39324;SDS011;25037;49.488;9.900;2022-10-01T08:23:19;3.30;;;1.52;;
39324;SDS011;25037;49.488;9.900;2022-10-01T08:25:47;3.63;;;1.50;;
39324;SDS011;25037;49.488;9.900;2022-10-01T08:28:12;2.72;;;1.48;;
39324;SDS011;25037;49.488;9.900;2022-10-01T08:30:39;3.78;;;1.33;;
39324;SDS011;25037;49.488;9.900;2022-10-01T08:33:06;3.47;;;1.23;;
39324;SDS011;25037;49.488;9.900;2022-10-01T08:35:34;2.40;;;1.33;;
39324;SDS011;25037;49.488;9.900;2022-10-01T08:38:03;3.15;;;1.13;;
39324;SDS011;25037;49.488;9.900;2022-10-01T08:40:33;3.47;;;1.10;;
39324;SDS011;25037;49.488;9.900;2022-10-01T08:43:06;4.57;;;1.13;;
39324;SDS011;25037;49.488;9.900;2022-10-01T08:45:45;2.92;;;1.15;;
39324;SDS011;25037;49.488;9.900;2022-10-01T08:56:54;2.22;;;1.00;;
39324;SDS011;25037;49.488;9.900;2022-10-01T09:02:05;3.05;;;1.65;;
39324;SDS011;25037;49.488;9.900;2022-10-01T09:04:50;2.65;;;1.20;;
39324;SDS011;25037;49.488;9.900;2022-10-01T09:08:01;3.55;;;1.25;;
39324;SDS011;25037;49.488;9.900;2022-10-01T09:10:44;3.60;;;1.10;;
39324;SDS011;25037;49.488;9.900;2022-10-01T09:13:26;3.00;;;1.20;;
39324;SDS011;25037;49.488;9.900;2022-10-01T09:21:57;3.10;;;1.30;;
39324;SDS011;25037;49.488;9.900;2022-10-01T09:24:33;2.95;;;1.15;;
39324;SDS011;25037;49.488;9.900;2022-10-01T09:27:13;6.20;;;1.13;;
39324;SDS011;25037;49.488;9.900;2022-10-01T09:29:48;1.95;;;1.00;;
39324;SDS011;25037;49.488;9.900;2022-10-01T09:32:40;2.42;;;1.20;;
39324;SDS011;25037;49.488;9.900;2022-10-01T09:38:14;2.38;;;0.93;;
39324;SDS011;25037;49.488;9.900;2022-10-01T09:40:48;3.60;;;1.15;;
39324;SDS011;25037;49.488;9.900;2022-10-01T09:43:19;2.50;;;1.05;;
39324;SDS011;25037;49.488;9.900;2022-10-01T09:45:51;3.90;;;0.93;;
39324;SDS011;25037;49.488;9.900;2022-10-01T09:48:23;2.15;;;0.90;;
39324;SDS011;25037;49.488;9.900;2022-10-01T09:51:20;2.10;;;0.90;;
39324;SDS011;25037;49.488;9.900;2022-10-01T09:53:58;2.30;;;1.17;;
39324;SDS011;25037;49.488;9.900;2022-10-01T09:56:45;3.42;;;1.30;;
39324;SDS011;25037;49.488;9.900;2022-10-01T09:59:19;3.72;;;1.42;;
39324;SDS011;25037;49.488;9.900;2022-10-01T10:04:21;3.67;;;1.50;;
39324;SDS011;25037;49.488;9.900;2022-10-01T10:06:50;3.42;;;1.55;;
39324;SDS011;25037;49.488;9.900;2022-10-01T10:09:25;3.85;;;1.33;;
39324;SDS011;25037;49.488;9.900;2022-10-01T10:11:54;4.32;;;1.75;;
39324;SDS011;25037;49.488;9.900;2022-10-01T10:14:24;2.90;;;1.42;;
39324;SDS011;25037;49.488;9.900;2022-10-01T10:16:54;2.47;;;1.20;;
39324;SDS011;25037;49.488;9.900;2022-10-01T10:19:21;2.42;;;1.15;;
39324;SDS011;25037;49.488;9.900;2022-10-01T10:21:53;2.45;;;1.00;;
39324;SDS011;25037;49.488;9.900;2022-10-01T10:24:31;2.78;;;1.15;;
39324;SDS011;25037;49.488;9.900;2022-10-01T10:26:59;2.13;;;1.02;;
39324;SDS011;25037;49.488;9.900;2022-10-01T10:29:29;3.05;;;1.48;;
39324;SDS011;25037;49.488;9.900;2022-10-01T10:32:01;2.10;;;1.20;;
39324;SDS011;25037;49.488;9.900;2022-10-01T10:34:36;1.73;;;0.90;;
39324;SDS011;25037;49.488;9.900;2022-10-01T10:37:10;9.32;;;1.77;;
39324;SDS011;25037;49.488;9.900;2022-10-01T10:39:39;2.72;;;1.00;;
39324;SDS011;25037;49.488;9.900;2022-10-01T10:42:07;1.65;;;0.70;;
39324;SDS011;25037;49.488;9.900;2022-10-01T10:44:38;2.35;;;0.98;;
39324;SDS011;25037;49.488;9.900;2022-10-01T10:47:11;2.00;;;0.80;;
39324;SDS011;25037;49.488;9.900;2022-10-01T10:49:57;2.03;;;0.80;;
39324;SDS011;25037;49.488;9.900;2022-10-01T10:52:27;1.75;;;0.80;;
39324;SDS011;25037;49.488;9.900;2022-10-01T10:54:56;2.88;;;1.02;;
39324;SDS011;25037;49.488;9.900;2022-10-01T10:57:24;2.72;;;0.77;;
39324;SDS011;25037;49.488;9.900;2022-10-01T10:59:59;2.22;;;1.02;;
39324;SDS011;25037;49.488;9.900;2022-10-01T11:02:27;1.73;;;0.90;;
39324;SDS011;25037;49.488;9.900;2022-10-01T11:04:54;1.45;;;0.68;;
39324;SDS011;25037;49.488;9.900;2022-10-01T11:07:23;1.77;;;0.65;;
39324;SDS011;25037;49.488;9.900;2022-10-01T11:09:57;1.88;;;0.60;;
39324;SDS011;25037;49.488;9.900;2022-10-01T11:12:55;1.02;;;0.50;;
39324;SDS011;25037;49.488;9.900;2022-10-01T11:15:35;1.10;;;0.60;;
39324;SDS011;25037;49.488;9.900;2022-10-01T11:23:38;2.83;;;0.73;;
39324;SDS011;25037;49.488;9.900;2022-10-01T11:28:51;1.20;;;0.63;;
39324;SDS011;25037;49.488;9.900;2022-10-01T11:31:43;2.60;;;1.00;;
39324;SDS011;25037;49.488;9.900;2022-10-01T11:34:36;2.35;;;0.93;;
39324;SDS011;25037;49.488;9.900;2022-10-01T11:39:57;1.65;;;0.70;;
39324;SDS011;25037;49.488;9.900;2022-10-01T11:42:31;3.00;;;0.80;;
39324;SDS011;25037;49.488;9.900;2022-10-01T11:45:01;1.33;;;0.60;;
39324;SDS011;25037;49.488;9.900;2022-10-01T11:47:50;1.88;;;1.00;;
39324;SDS011;25037;49.488;9.900;2022-10-01T11:50:29;1.52;;;0.70;;
39324;SDS011;25037;49.488;9.900;2022-10-01T11:52:59;1.55;;;0.80;;
39324;SDS011;25037;49.488;9.900;2022-10-01T11:55:35;1.73;;;0.65;;
39324;SDS011;25037;49.488;9.900;2022-10-01T11:58:35;1.90;;;0.65;;
39324;SDS011;25037;49.488;9.900;2022-10-01T12:03:55;1.55;;;0.60;;
39324;SDS011;25037;49.488;9.900;2022-10-01T12:06:46;1.38;;;0.50;;
39324;SDS011;25037;49.488;9.900;2022-10-01T12:12:19;3.83;;;1.10;;
39324;SDS011;25037;49.488;9.900;2022-10-01T12:20:23;2.35;;;0.85;;
39324;SDS011;25037;49.488;9.900;2022-10-01T12:23:02;1.60;;;0.47;;
39324;SDS011;25037;49.488;9.900;2022-10-01T12:25:42;1.20;;;0.52;;
39324;SDS011;25037;49.488;9.900;2022-10-01T12:28:20;2.00;;;0.40;;
39324;SDS011;25037;49.488;9.900;2022-10-01T12:30:53;1.77;;;0.50;;
39324;SDS011;25037;49.488;9.900;2022-10-01T12:33:32;1.10;;;0.55;;
39324;SDS011;25037;49.488;9.900;2022-10-01T12:39:11;0.63;;;0.32;;
39324;SDS011;25037;49.488;9.900;2022-10-01T12:47:56;2.30;;;0.80;;
39324;SDS011;25037;49.488;9.900;2022-10-01T12:50:49;4.95;;;0.90;;
39324;SDS011;25037;49.488;9.900;2022-10-01T12:53:30;4.50;;;1.50;;
39324;SDS011;25037;49.488;9.900;2022-10-01T12:56:35;1.30;;;0.40;;
39324;SDS011;25037;49.488;9.900;2022-10-01T13:07:40;3.33;;;0.50;;
39324;SDS011;25037;49.488;9.900;2022-10-01T13:13:21;1.20;;;0.50;;
39324;SDS011;25037;49.488;9.900;2022-10-01T13:19:20;2.67;;;0.60;;
39324;SDS011;25037;49.488;9.900;2022-10-01T13:24:52;0.95;;;0.45;;
39324;SDS011;25037;49.488;9.900;2022-10-01T13:30:03;2.03;;;0.70;;
39324;SDS011;25037;49.488;9.900;2022-10-01T13:32:31;2.65;;;1.00;;
39324;SDS011;25037;49.488;9.900;2022-10-01T13:35:34;2.40;;;0.90;;
39324;SDS011;25037;49.488;9.900;2022-10-01T13:38:16;1.65;;;0.82;;
39324;SDS011;25037;49.488;9.900;2022-10-01T13:41:01;4.82;;;0.90;;
39324;SDS011;25037;49.488;9.900;2022-10-01T13:43:29;2.58;;;0.90;;
39324;SDS011;25037;49.488;9.900;2022-10-01T13:46:03;1.65;;;0.57;;
39324;SDS011;25037;49.488;9.900;2022-10-01T13:48:31;2.17;;;0.65;;
39324;SDS011;25037;49.488;9.900;2022-10-01T13:51:00;1.77;;;0.57;;
39324;SDS011;25037;49.488;9.900;2022-10-01T13:53:34;1.58;;;0.70;;
39324;SDS011;25037;49.488;9.900;2022-10-01T13:56:02;2.97;;;0.97;;
39324;SDS011;25037;49.488;9.900;2022-10-01T14:00:59;1.70;;;0.60;;
39324;SDS011;25037;49.488;9.900;2022-10-01T14:06:35;1.40;;;0.40;;
39324;SDS011;25037;49.488;9.900;2022-10-01T14:11:51;1.83;;;0.52;;
39324;SDS011;25037;49.488;9.900;2022-10-01T14:14:41;2.10;;;0.60;;
39324;SDS011;25037;49.488;9.900;2022-10-01T14:17:32;1.42;;;0.68;;
39324;SDS011;25037;49.488;9.900;2022-10-01T14:20:00;2.65;;;0.50;;
39324;SDS011;25037;49.488;9.900;2022-10-01T14:25:06;2.22;;;0.63;;
39324;SDS011;25037;49.488;9.900;2022-10-01T14:36:17;2.10;;;0.60;;
39324;SDS011;25037;49.488;9.900;2022-10-01T14:39:12;2.50;;;0.60;;
39324;SDS011;25037;49.488;9.900;2022-10-01T14:41:39;2.60;;;0.50;;
39324;SDS011;25037;49.488;9.900;2022-10-01T14:47:11;2.78;;;0.80;;
39324;SDS011;25037;49.488;9.900;2022-10-01T14:49:37;2.65;;;0.63;;
39324;SDS011;25037;49.488;9.900;2022-10-01T14:52:03;1.75;;;0.70;;
39324;SDS011;25037;49.488;9.900;2022-10-01T14:54:36;3.92;;;1.10;;
39324;SDS011;25037;49.488;9.900;2022-10-01T14:57:10;1.33;;;0.65;;
39324;SDS011;25037;49.488;9.900;2022-10-01T14:59:40;1.42;;;0.55;;
39324;SDS011;25037;49.488;9.900;2022-10-01T15:02:19;2.47;;;0.60;;
39324;SDS011;25037;49.488;9.900;2022-10-01T15:04:50;1.75;;;0.60;;
39324;SDS011;25037;49.488;9.900;2022-10-01T15:07:19;2.97;;;0.80;;
39324;SDS011;25037;49.488;9.900;2022-10-01T15:09:45;3.30;;;0.70;;
39324;SDS011;25037;49.488;9.900;2022-10-01T15:12:12;2.88;;;0.80;;
39324;SDS011;25037;49.488;9.900;2022-10-01T15:14:40;2.50;;;0.80;;
39324;SDS011;25037;49.488;9.900;2022-10-01T15:17:11;2.28;;;0.75;;
39324;SDS011;25037;49.488;9.900;2022-10-01T15:19:45;2.28;;;0.60;;
39324;SDS011;25037;49.488;9.900;2022-10-01T15:22:16;2.53;;;0.50;;
39324;SDS011;25037;49.488;9.900;2022-10-01T15:24:45;1.73;;;0.52;;
39324;SDS011;25037;49.488;9.900;2022-10-01T15:27:13;3.00;;;0.50;;
39324;SDS011;25037;49.488;9.900;2022-10-01T15:29:42;2.42;;;0.60;;
39324;SDS011;25037;49.488;9.900;2022-10-01T15:32:11;1.85;;;0.70;;
39324;SDS011;25037;49.488;9.900;2022-10-01T15:34:40;1.42;;;0.35;;
39324;SDS011;25037;49.488;9.900;2022-10-01T15:40:22;3.08;;;0.50;;
39324;SDS011;25037;49.488;9.900;2022-10-01T15:43:11;5.45;;;0.63;;
39324;SDS011;25037;49.488;9.900;2022-10-01T15:48:34;2.38;;;0.60;;
39324;SDS011;25037;49.488;9.900;2022-10-01T15:51:01;2.00;;;0.55;;
39324;SDS011;25037;49.488;9.900;2022-10-01T15:54:05;3.33;;;1.23;;
39324;SDS011;25037;49.488;9.900;2022-10-01T15:56:33;2.30;;;0.60;;
39324;SDS011;25037;49.488;9.900;2022-10-01T15:59:13;1.60;;;0.52;;
39324;SDS011;25037;49.488;9.900;2022-10-01T16:01:41;3.42;;;0.60;;
39324;SDS011;25037;49.488;9.900;2022-10-01T16:04:08;2.40;;;0.80;;
39324;SDS011;25037;49.488;9.900;2022-10-01T16:06:45;2.55;;;0.50;;
39324;SDS011;25037;49.488;9.900;2022-10-01T16:09:15;2.50;;;0.50;;
39324;SDS011;25037;49.488;9.900;2022-10-01T16:14:28;2.47;;;0.70;;
39324;SDS011;25037;49.488;9.900;2022-10-01T16:19:41;1.50;;;0.40;;
39324;SDS011;25037;49.488;9.900;2022-10-01T16:22:19;4.40;;;0.60;;
39324;SDS011;25037;49.488;9.900;2022-10-01T16:24:49;2.70;;;0.80;;
39324;SDS011;25037;49.488;9.900;2022-10-01T16:27:17;4.65;;;0.57;;
39324;SDS011;25037;49.488;9.900;2022-10-01T16:29:56;2.55;;;0.60;;
39324;SDS011;25037;49.488;9.900;2022-10-01T16:32:25;1.35;;;0.47;;
39324;SDS011;25037;49.488;9.900;2022-10-01T16:34:51;2.08;;;0.85;;
39324;SDS011;25037;49.488;9.900;2022-10-01T16:37:17;4.25;;;0.70;;
39324;SDS011;25037;49.488;9.900;2022-10-01T16:39:43;2.33;;;0.80;;
39324;SDS011;25037;49.488;9.900;2022-10-01T16:42:13;2.28;;;0.50;;
39324;SDS011;25037;49.488;9.900;2022-10-01T16:44:43;3.22;;;0.50;;
39324;SDS011;25037;49.488;9.900;2022-10-01T16:47:10;2.67;;;0.70;;
39324;SDS011;25037;49.488;9.900;2022-10-01T16:49:36;2.78;;;0.40;;
39324;SDS011;25037;49.488;9.900;2022-10-01T16:52:01;1.73;;;0.52;;
39324;SDS011;25037;49.488;9.900;2022-10-01T16:54:27;2.50;;;0.50;;
39324;SDS011;25037;49.488;9.900;2022-10-01T16:56:53;4.35;;;0.82;;
39324;SDS011;25037;49.488;9.900;2022-10-01T16:59:19;1.45;;;0.57;;
39324;SDS011;25037;49.488;9.900;2022-10-01T17:01:47;3.13;;;0.80;;
39324;SDS011;25037;49.488;9.900;2022-10-01T17:04:15;2.47;;;0.50;;
39324;SDS011;25037;49.488;9.900;2022-10-01T17:06:41;2.80;;;0.82;;
39324;SDS011;25037;49.488;9.900;2022-10-01T17:09:07;1.27;;;0.50;;
39324;SDS011;25037;49.488;9.900;2022-10-01T17:11:33;0.98;;;0.47;;
39324;SDS011;25037;49.488;9.900;2022-10-01T17:13:59;2.75;;;0.90;;
39324;SDS011;25037;49.488;9.900;2022-10-01T17:16:26;1.23;;;0.50;;